createdAt,value
2019-04-13T13:17:29.566Z,13.70
2019-04-13T13:19:58.456Z,13.50
2019-04-13T13:22:27.346Z,13.60
2019-04-13T13:24:56.223Z,13.50
2019-04-13T13:27:25.128Z,13.40
2019-04-13T13:29:54.334Z,13.30
2019-04-13T13:32:23.217Z,13.20
2019-04-13T13:34:52.061Z,13.10
2019-04-13T13:37:20.907Z,13.10
2019-04-13T13:39:50.073Z,13.10
2019-04-13T13:42:18.943Z,13.00
2019-04-13T13:44:49.785Z,13.00
2019-04-13T13:47:18.405Z,13.10
2019-04-13T13:49:50.397Z,13.10
2019-04-13T13:52:17.825Z,13.10
2019-04-13T13:54:46.924Z,13.10
2019-04-13T13:57:17.980Z,13.20
2019-04-13T13:59:46.436Z,13.30
2019-04-13T14:02:22.706Z,13.30
2019-04-13T14:04:51.601Z,13.50
2019-04-13T14:07:20.471Z,13.50
2019-04-13T14:10:09.245Z,13.50
2019-04-13T14:12:38.089Z,13.50
2019-04-13T14:15:11.703Z,13.50
2019-04-13T14:17:39.747Z,13.50
2019-04-13T14:20:09.798Z,13.40
2019-04-13T14:22:38.753Z,13.30
2019-04-13T14:25:08.329Z,13.20
2019-04-13T14:27:37.178Z,13.30
2019-04-13T14:30:08.112Z,13.20
2019-04-13T14:32:37.200Z,13.30
2019-04-13T14:35:06.656Z,13.10
2019-04-13T14:37:35.606Z,13.10
2019-04-13T14:40:06.692Z,13.00
2019-04-13T14:42:35.720Z,13.00
2019-04-13T14:45:06.566Z,12.90
2019-04-13T14:47:35.862Z,12.90
2019-04-13T14:50:08.744Z,12.90
2019-04-13T14:52:37.602Z,12.90
2019-04-13T14:55:06.689Z,12.80
2019-04-13T14:57:38.636Z,12.90
2019-04-13T15:00:08.113Z,12.90
2019-04-13T15:02:37.193Z,12.90
2019-04-13T15:05:07.936Z,12.80
2019-04-13T15:07:36.780Z,12.80
2019-04-13T15:10:07.464Z,12.80
2019-04-13T15:12:36.911Z,12.70
2019-04-13T15:15:07.664Z,12.60
2019-04-13T15:17:51.437Z,12.50
2019-04-13T15:20:24.944Z,12.50
2019-04-13T15:22:54.951Z,12.40
2019-04-13T15:25:22.485Z,12.30
2019-04-13T15:27:56.215Z,12.20
2019-04-13T15:30:23.099Z,12.10
2019-04-13T15:32:51.990Z,12.10
2019-04-13T15:35:21.921Z,12.10
2019-04-13T15:37:51.558Z,12.10
2019-04-13T15:40:25.334Z,12.00
2019-04-13T15:42:58.618Z,12.00
2019-04-13T15:45:22.701Z,11.90
2019-04-13T15:47:51.581Z,11.90
2019-04-13T15:50:21.327Z,12.00
2019-04-13T15:52:51.109Z,12.00
2019-04-13T15:55:20.772Z,11.90
2019-04-13T15:57:49.683Z,11.80
2019-04-13T16:00:19.124Z,11.70
2019-04-13T16:02:48.019Z,11.70
2019-04-13T16:05:17.642Z,11.60
2019-04-13T16:07:47.124Z,11.60
2019-04-13T16:10:17.588Z,11.50
2019-04-13T16:12:49.326Z,11.50
2019-04-13T16:15:20.768Z,11.50
2019-04-13T16:17:49.723Z,11.50
2019-04-13T16:20:18.584Z,11.50
2019-04-13T16:22:47.432Z,11.40
2019-04-13T16:25:16.464Z,11.20
2019-04-13T16:27:53.408Z,11.20
2019-04-13T16:30:43.336Z,11.20
2019-04-13T16:33:32.533Z,11.20
2019-04-13T16:36:04.005Z,11.10
2019-04-13T16:38:32.959Z,11.10
2019-04-13T16:41:01.886Z,11.10
2019-04-13T16:43:35.292Z,11.00
2019-04-13T16:46:25.061Z,11.00
2019-04-13T16:49:19.506Z,10.90
2019-04-13T16:51:49.901Z,10.90
2019-04-13T16:54:21.199Z,10.80
2019-04-13T16:57:00.682Z,10.70
2019-04-13T16:59:47.985Z,10.70
2019-04-13T17:02:24.658Z,10.60
2019-04-13T17:04:55.187Z,10.70
2019-04-13T17:07:24.137Z,10.60
2019-04-13T17:09:54.249Z,10.60
2019-04-13T17:12:32.682Z,10.60
2019-04-13T17:14:54.173Z,10.50
2019-04-13T17:17:24.152Z,10.40
2019-04-13T17:19:55.598Z,10.40
2019-04-13T17:22:30.377Z,10.40
2019-04-13T17:25:04.046Z,10.40
2019-04-13T17:27:35.703Z,10.30
2019-04-13T17:30:26.149Z,10.30
2019-04-13T17:32:59.670Z,10.20
2019-04-13T17:35:29.122Z,10.30
2019-04-13T17:37:59.021Z,10.30
2019-04-13T17:40:30.466Z,10.30
2019-04-13T17:43:18.335Z,10.20
2019-04-13T17:46:07.141Z,10.10
2019-04-13T17:48:56.103Z,10.10
2019-04-13T17:51:43.871Z,10.10
2019-04-13T17:54:21.110Z,10.00
2019-04-13T17:56:49.970Z,9.90
2019-04-13T17:59:21.977Z,9.90
2019-04-13T18:02:09.122Z,9.80
2019-04-13T18:04:55.846Z,9.90
2019-04-13T18:07:44.435Z,9.90
2019-04-13T18:10:33.948Z,9.80
2019-04-13T18:13:13.702Z,9.80
2019-04-13T18:15:51.025Z,9.70
2019-04-13T18:18:27.395Z,9.70
2019-04-13T18:20:57.266Z,9.70
2019-04-13T18:23:27.458Z,9.70
2019-04-13T18:25:58.822Z,9.70
2019-04-13T18:28:27.254Z,9.80
2019-04-13T18:30:56.211Z,9.90
2019-04-13T18:33:26.128Z,9.80
2019-04-13T18:35:56.118Z,9.80
2019-04-13T18:38:25.044Z,9.80
2019-04-13T18:40:53.971Z,9.70
2019-04-13T18:43:27.609Z,9.70
2019-04-13T18:45:53.747Z,9.60
2019-04-13T18:48:22.855Z,9.50
2019-04-13T18:50:51.962Z,9.40
2019-04-13T18:53:21.237Z,9.50
2019-04-13T18:55:50.165Z,9.50
2019-04-13T18:58:19.061Z,9.40
2019-04-13T19:00:49.151Z,9.40
2019-04-13T19:03:19.432Z,9.40
2019-04-13T19:05:48.420Z,9.30
2019-04-13T19:08:17.266Z,9.30
2019-04-13T19:10:46.608Z,9.30
2019-04-13T19:13:15.516Z,9.20
2019-04-13T19:15:44.366Z,9.20
2019-04-13T19:18:13.197Z,9.10
2019-04-13T19:20:42.084Z,9.10
2019-04-13T19:23:10.930Z,9.10
2019-04-13T19:25:39.772Z,9.00
2019-04-13T19:28:08.659Z,9.00
2019-04-13T19:30:38.613Z,9.00
2019-04-13T19:33:07.462Z,9.00
2019-04-13T19:35:36.342Z,9.00
2019-04-13T19:38:05.329Z,9.10
2019-04-13T19:40:34.172Z,9.10
2019-04-13T19:43:10.666Z,9.00
2019-04-13T19:45:33.575Z,9.10
2019-04-13T19:48:02.407Z,9.00
2019-04-13T19:50:31.256Z,9.00
2019-04-13T19:53:16.564Z,9.10
2019-04-13T19:55:45.421Z,9.10
2019-04-13T19:58:14.273Z,9.10
2019-04-13T20:00:47.539Z,9.10
2019-04-13T20:03:16.390Z,9.10
2019-04-13T20:05:45.237Z,9.10
2019-04-13T20:08:14.154Z,9.00
2019-04-13T20:10:43.048Z,9.10
2019-04-13T20:13:12.722Z,9.00
2019-04-13T20:15:42.344Z,9.00
2019-04-13T20:18:11.868Z,9.10
2019-04-13T20:20:40.963Z,9.10
2019-04-13T20:23:09.818Z,9.00
2019-04-13T20:25:39.407Z,9.00
2019-04-13T20:28:09.395Z,9.00
2019-04-13T20:30:39.232Z,9.00
2019-04-13T20:33:08.973Z,9.00
2019-04-13T20:35:50.013Z,9.00
2019-04-13T20:38:08.724Z,9.00
2019-04-13T20:40:44.903Z,8.90
2019-04-13T20:43:16.474Z,8.90
2019-04-13T20:45:45.348Z,8.80
2019-04-13T20:48:14.208Z,8.80
2019-04-13T20:50:43.478Z,8.80
2019-04-13T20:53:12.336Z,8.80
2019-04-13T20:55:41.393Z,8.90
2019-04-13T20:58:10.371Z,8.90
2019-04-13T21:00:39.937Z,9.00
2019-04-13T21:03:09.960Z,9.00
2019-04-13T21:05:39.017Z,9.10
2019-04-13T21:08:08.387Z,9.00
2019-04-13T21:10:37.316Z,8.90
2019-04-13T21:13:06.405Z,8.80
2019-04-13T21:15:35.688Z,8.80
2019-04-13T21:18:05.765Z,8.80
2019-04-13T21:20:35.963Z,8.80
2019-04-13T21:23:05.931Z,8.70
2019-04-13T21:25:35.882Z,8.70
2019-04-13T21:28:05.903Z,8.70
2019-04-13T21:30:35.954Z,8.70
2019-04-13T21:33:06.113Z,8.70
2019-04-13T21:35:35.924Z,8.80
2019-04-13T21:38:06.130Z,8.80
2019-04-13T21:40:36.157Z,8.80
2019-04-13T21:43:06.227Z,8.70
2019-04-13T21:45:36.349Z,8.70
2019-04-13T21:48:06.587Z,8.70
2019-04-13T21:50:46.065Z,8.80
2019-04-13T21:53:16.503Z,8.70
2019-04-13T21:55:48.225Z,8.70
2019-04-13T21:58:18.295Z,8.60
2019-04-13T22:01:16.975Z,8.70
2019-04-13T22:03:46.831Z,8.80
2019-04-13T22:06:16.686Z,8.90
2019-04-13T22:08:46.950Z,8.90
2019-04-13T22:11:16.881Z,8.80
2019-04-13T22:13:46.783Z,8.80
2019-04-13T22:16:16.808Z,8.80
2019-04-13T22:18:47.474Z,8.80
2019-04-13T22:21:17.564Z,8.80
2019-04-13T22:23:47.486Z,8.80
2019-04-13T22:26:17.536Z,8.80
2019-04-13T22:28:51.782Z,8.70
2019-04-13T22:31:31.043Z,8.70
2019-04-13T22:34:01.097Z,8.70
2019-04-13T22:36:31.531Z,8.70
2019-04-13T22:39:01.070Z,8.70
2019-04-13T22:41:30.957Z,8.70
2019-04-13T22:44:00.826Z,8.70
2019-04-13T22:46:30.338Z,8.70
2019-04-13T22:49:08.061Z,8.70
2019-04-13T22:51:38.559Z,8.80
2019-04-13T22:54:12.176Z,8.90
2019-04-13T22:56:48.851Z,8.80
2019-04-13T22:59:17.663Z,8.90
2019-04-13T23:01:50.835Z,8.80
2019-04-13T23:04:19.716Z,8.80
2019-04-13T23:06:48.965Z,8.70
2019-04-13T23:09:19.138Z,8.70
2019-04-13T23:11:48.097Z,8.70
2019-04-13T23:14:17.836Z,8.80
2019-04-13T23:16:47.706Z,8.80
2019-04-13T23:19:17.578Z,8.70
2019-04-13T23:21:46.436Z,8.70
2019-04-13T23:24:15.279Z,8.80
2019-04-13T23:26:45.163Z,8.80
2019-04-13T23:29:14.979Z,8.80
2019-04-13T23:31:43.857Z,8.80
2019-04-13T23:34:13.643Z,8.80
2019-04-13T23:36:42.589Z,8.80
2019-04-13T23:39:12.612Z,8.90
2019-04-13T23:41:42.809Z,8.90
2019-04-13T23:44:11.757Z,8.80
2019-04-13T23:46:41.688Z,8.80
2019-04-13T23:49:10.682Z,8.80
2019-04-13T23:51:40.314Z,8.70
2019-04-13T23:54:09.321Z,8.80
2019-04-13T23:56:56.374Z,8.80
2019-04-13T23:59:30.746Z,8.70
